sensor_id;sensor_type;location;lat;lon;timestamp;P1;durP1;ratioP1;P2;durP2;ratioP2
26034;SDS011;13809;48.632;11.576;2023-09-18T00:02:06;7.93;;;7.30;;
26034;SDS011;13809;48.632;11.576;2023-09-18T00:07:11;7.87;;;7.20;;
26034;SDS011;13809;48.632;11.576;2023-09-18T00:12:15;7.00;;;6.40;;
26034;SDS011;13809;48.632;11.576;2023-09-18T00:17:19;7.60;;;7.00;;
26034;SDS011;13809;48.632;11.576;2023-09-18T00:22:24;7.40;;;6.90;;
26034;SDS011;13809;48.632;11.576;2023-09-18T00:27:27;6.80;;;6.30;;
26034;SDS011;13809;48.632;11.576;2023-09-18T00:32:31;6.97;;;6.47;;
26034;SDS011;13809;48.632;11.576;2023-09-18T00:37:35;7.37;;;6.80;;
26034;SDS011;13809;48.632;11.576;2023-09-18T00:42:41;6.57;;;6.10;;
26034;SDS011;13809;48.632;11.576;2023-09-18T00:47:44;7.30;;;6.80;;
26034;SDS011;13809;48.632;11.576;2023-09-18T00:52:49;7.43;;;6.80;;
26034;SDS011;13809;48.632;11.576;2023-09-18T00:57:54;6.70;;;6.20;;
26034;SDS011;13809;48.632;11.576;2023-09-18T01:02:57;6.90;;;6.30;;
26034;SDS011;13809;48.632;11.576;2023-09-18T01:08:03;6.43;;;6.03;;
26034;SDS011;13809;48.632;11.576;2023-09-18T01:13:08;7.67;;;7.07;;
26034;SDS011;13809;48.632;11.576;2023-09-18T01:18:17;7.77;;;7.17;;
26034;SDS011;13809;48.632;11.576;2023-09-18T01:23:22;6.57;;;6.10;;
26034;SDS011;13809;48.632;11.576;2023-09-18T01:28:25;7.60;;;7.03;;
26034;SDS011;13809;48.632;11.576;2023-09-18T01:33:28;6.23;;;5.83;;
26034;SDS011;13809;48.632;11.576;2023-09-18T01:38:34;5.83;;;5.43;;
26034;SDS011;13809;48.632;11.576;2023-09-18T01:43:38;6.20;;;5.80;;
26034;SDS011;13809;48.632;11.576;2023-09-18T01:48:45;6.13;;;5.67;;
26034;SDS011;13809;48.632;11.576;2023-09-18T01:53:50;6.90;;;6.40;;
26034;SDS011;13809;48.632;11.576;2023-09-18T01:58:54;6.23;;;5.73;;
26034;SDS011;13809;48.632;11.576;2023-09-18T02:03:59;7.10;;;6.60;;
26034;SDS011;13809;48.632;11.576;2023-09-18T02:09:24;6.07;;;5.57;;
26034;SDS011;13809;48.632;11.576;2023-09-18T02:14:27;6.20;;;5.63;;
26034;SDS011;13809;48.632;11.576;2023-09-18T02:19:32;5.07;;;4.70;;
26034;SDS011;13809;48.632;11.576;2023-09-18T02:24:37;6.50;;;6.00;;
26034;SDS011;13809;48.632;11.576;2023-09-18T02:29:40;6.23;;;5.73;;
26034;SDS011;13809;48.632;11.576;2023-09-18T02:34:44;6.63;;;6.13;;
26034;SDS011;13809;48.632;11.576;2023-09-18T02:39:48;6.17;;;5.57;;
26034;SDS011;13809;48.632;11.576;2023-09-18T02:44:51;6.00;;;5.53;;
26034;SDS011;13809;48.632;11.576;2023-09-18T02:49:54;7.03;;;6.43;;
26034;SDS011;13809;48.632;11.576;2023-09-18T02:54:59;7.37;;;6.77;;
26034;SDS011;13809;48.632;11.576;2023-09-18T03:00:03;7.77;;;7.17;;
26034;SDS011;13809;48.632;11.576;2023-09-18T03:05:07;6.57;;;6.07;;
26034;SDS011;13809;48.632;11.576;2023-09-18T03:10:12;7.40;;;6.77;;
26034;SDS011;13809;48.632;11.576;2023-09-18T03:15:18;6.33;;;5.83;;
26034;SDS011;13809;48.632;11.576;2023-09-18T03:20:22;7.10;;;6.50;;
26034;SDS011;13809;48.632;11.576;2023-09-18T03:25:27;6.70;;;6.20;;
26034;SDS011;13809;48.632;11.576;2023-09-18T03:30:49;7.73;;;7.13;;
26034;SDS011;13809;48.632;11.576;2023-09-18T03:35:53;7.43;;;6.83;;
26034;SDS011;13809;48.632;11.576;2023-09-18T03:41:01;6.23;;;5.73;;
26034;SDS011;13809;48.632;11.576;2023-09-18T03:46:04;7.67;;;7.07;;
26034;SDS011;13809;48.632;11.576;2023-09-18T03:51:09;6.47;;;5.97;;
26034;SDS011;13809;48.632;11.576;2023-09-18T03:56:19;6.80;;;6.20;;
26034;SDS011;13809;48.632;11.576;2023-09-18T04:01:23;6.50;;;6.10;;
26034;SDS011;13809;48.632;11.576;2023-09-18T04:06:32;5.87;;;5.37;;
26034;SDS011;13809;48.632;11.576;2023-09-18T04:11:40;6.60;;;6.10;;
26034;SDS011;13809;48.632;11.576;2023-09-18T04:16:43;6.77;;;6.27;;
26034;SDS011;13809;48.632;11.576;2023-09-18T04:21:46;7.40;;;6.80;;
26034;SDS011;13809;48.632;11.576;2023-09-18T04:26:52;6.97;;;6.37;;
26034;SDS011;13809;48.632;11.576;2023-09-18T04:31:55;7.10;;;6.50;;
26034;SDS011;13809;48.632;11.576;2023-09-18T04:36:59;7.17;;;6.47;;
26034;SDS011;13809;48.632;11.576;2023-09-18T04:42:04;7.70;;;7.03;;
26034;SDS011;13809;48.632;11.576;2023-09-18T04:47:07;10.03;;;7.00;;
26034;SDS011;13809;48.632;11.576;2023-09-18T04:52:11;8.80;;;7.20;;
26034;SDS011;13809;48.632;11.576;2023-09-18T04:57:16;8.37;;;7.17;;
26034;SDS011;13809;48.632;11.576;2023-09-18T05:02:41;8.10;;;6.10;;
26034;SDS011;13809;48.632;11.576;2023-09-18T05:07:45;7.73;;;6.47;;
26034;SDS011;13809;48.632;11.576;2023-09-18T05:12:50;8.13;;;7.33;;
26034;SDS011;13809;48.632;11.576;2023-09-18T05:18:00;9.40;;;7.70;;
26034;SDS011;13809;48.632;11.576;2023-09-18T05:23:05;8.13;;;7.33;;
26034;SDS011;13809;48.632;11.576;2023-09-18T05:28:11;7.70;;;7.10;;
26034;SDS011;13809;48.632;11.576;2023-09-18T05:33:14;10.80;;;6.33;;
26034;SDS011;13809;48.632;11.576;2023-09-18T05:38:18;7.83;;;6.77;;
26034;SDS011;13809;48.632;11.576;2023-09-18T05:43:23;12.10;;;6.83;;
26034;SDS011;13809;48.632;11.576;2023-09-18T05:48:26;35.67;;;8.30;;
26034;SDS011;13809;48.632;11.576;2023-09-18T05:53:30;8.47;;;7.63;;
26034;SDS011;13809;48.632;11.576;2023-09-18T05:58:37;7.87;;;6.73;;
26034;SDS011;13809;48.632;11.576;2023-09-18T06:03:40;8.53;;;7.73;;
26034;SDS011;13809;48.632;11.576;2023-09-18T06:08:44;7.07;;;6.57;;
26034;SDS011;13809;48.632;11.576;2023-09-18T06:13:48;9.97;;;9.17;;
26034;SDS011;13809;48.632;11.576;2023-09-18T06:18:51;9.93;;;9.13;;
26034;SDS011;13809;48.632;11.576;2023-09-18T06:23:57;12.67;;;11.60;;
26034;SDS011;13809;48.632;11.576;2023-09-18T06:29:02;11.57;;;10.57;;
26034;SDS011;13809;48.632;11.576;2023-09-18T06:34:05;11.80;;;10.77;;
26034;SDS011;13809;48.632;11.576;2023-09-18T06:39:09;12.23;;;11.23;;
26034;SDS011;13809;48.632;11.576;2023-09-18T06:44:13;10.30;;;9.50;;
26034;SDS011;13809;48.632;11.576;2023-09-18T06:49:17;7.93;;;7.33;;
26034;SDS011;13809;48.632;11.576;2023-09-18T06:54:21;8.30;;;7.50;;
26034;SDS011;13809;48.632;11.576;2023-09-18T06:59:26;7.97;;;7.30;;
26034;SDS011;13809;48.632;11.576;2023-09-18T07:04:32;6.90;;;6.40;;
26034;SDS011;13809;48.632;11.576;2023-09-18T07:09:35;7.77;;;7.17;;
26034;SDS011;13809;48.632;11.576;2023-09-18T07:14:58;7.60;;;7.03;;
26034;SDS011;13809;48.632;11.576;2023-09-18T07:20:01;9.00;;;8.30;;
26034;SDS011;13809;48.632;11.576;2023-09-18T07:25:11;8.73;;;8.03;;
26034;SDS011;13809;48.632;11.576;2023-09-18T07:30:15;6.57;;;6.03;;
26034;SDS011;13809;48.632;11.576;2023-09-18T07:35:21;6.87;;;6.37;;
26034;SDS011;13809;48.632;11.576;2023-09-18T07:40:24;6.53;;;6.03;;
26034;SDS011;13809;48.632;11.576;2023-09-18T07:45:28;6.13;;;5.70;;
26034;SDS011;13809;48.632;11.576;2023-09-18T07:50:32;6.40;;;5.90;;
26034;SDS011;13809;48.632;11.576;2023-09-18T07:55:35;6.10;;;5.60;;
26034;SDS011;13809;48.632;11.576;2023-09-18T08:00:39;5.77;;;5.37;;
26034;SDS011;13809;48.632;11.576;2023-09-18T08:05:42;5.73;;;5.33;;
26034;SDS011;13809;48.632;11.576;2023-09-18T08:10:46;5.67;;;5.17;;
26034;SDS011;13809;48.632;11.576;2023-09-18T08:15:50;5.30;;;4.97;;
26034;SDS011;13809;48.632;11.576;2023-09-18T08:20:54;5.37;;;4.97;;
26034;SDS011;13809;48.632;11.576;2023-09-18T08:25:59;5.37;;;4.97;;
26034;SDS011;13809;48.632;11.576;2023-09-18T08:31:04;5.23;;;4.83;;
26034;SDS011;13809;48.632;11.576;2023-09-18T08:36:07;5.27;;;4.80;;
26034;SDS011;13809;48.632;11.576;2023-09-18T08:41:11;4.33;;;4.10;;
26034;SDS011;13809;48.632;11.576;2023-09-18T08:46:16;5.20;;;4.70;;
26034;SDS011;13809;48.632;11.576;2023-09-18T08:51:20;5.43;;;4.90;;
26034;SDS011;13809;48.632;11.576;2023-09-18T08:56:24;5.60;;;5.10;;
26034;SDS011;13809;48.632;11.576;2023-09-18T09:01:31;5.10;;;4.70;;
26034;SDS011;13809;48.632;11.576;2023-09-18T09:06:34;5.47;;;4.97;;
26034;SDS011;13809;48.632;11.576;2023-09-18T09:11:38;7.50;;;5.60;;
26034;SDS011;13809;48.632;11.576;2023-09-18T09:16:47;5.67;;;5.17;;
26034;SDS011;13809;48.632;11.576;2023-09-18T09:21:51;6.23;;;4.93;;
26034;SDS011;13809;48.632;11.576;2023-09-18T09:26:57;4.60;;;4.30;;
26034;SDS011;13809;48.632;11.576;2023-09-18T09:32:16;4.87;;;4.33;;
26034;SDS011;13809;48.632;11.576;2023-09-18T09:37:24;4.40;;;4.10;;
26034;SDS011;13809;48.632;11.576;2023-09-18T09:42:37;24.67;;;6.30;;
26034;SDS011;13809;48.632;11.576;2023-09-18T09:47:43;5.57;;;3.93;;
26034;SDS011;13809;48.632;11.576;2023-09-18T09:52:48;6.03;;;4.50;;
26034;SDS011;13809;48.632;11.576;2023-09-18T09:57:53;4.40;;;4.03;;
26034;SDS011;13809;48.632;11.576;2023-09-18T10:03:07;5.57;;;4.50;;
26034;SDS011;13809;48.632;11.576;2023-09-18T10:08:12;5.70;;;4.47;;
26034;SDS011;13809;48.632;11.576;2023-09-18T10:13:17;4.33;;;3.90;;
26034;SDS011;13809;48.632;11.576;2023-09-18T10:18:26;5.27;;;4.03;;
26034;SDS011;13809;48.632;11.576;2023-09-18T10:23:34;4.63;;;3.93;;
26034;SDS011;13809;48.632;11.576;2023-09-18T10:28:48;4.13;;;3.77;;
26034;SDS011;13809;48.632;11.576;2023-09-18T10:33:56;5.67;;;3.60;;
26034;SDS011;13809;48.632;11.576;2023-09-18T10:39:01;6.07;;;4.00;;
26034;SDS011;13809;48.632;11.576;2023-09-18T10:44:09;5.37;;;3.40;;
26034;SDS011;13809;48.632;11.576;2023-09-18T10:49:15;3.80;;;3.40;;
26034;SDS011;13809;48.632;11.576;2023-09-18T10:54:20;6.80;;;3.80;;
26034;SDS011;13809;48.632;11.576;2023-09-18T10:59:24;4.83;;;3.43;;
26034;SDS011;13809;48.632;11.576;2023-09-18T11:04:28;5.13;;;3.20;;
26034;SDS011;13809;48.632;11.576;2023-09-18T11:09:41;3.40;;;2.80;;
26034;SDS011;13809;48.632;11.576;2023-09-18T11:14:46;5.53;;;2.60;;
26034;SDS011;13809;48.632;11.576;2023-09-18T11:19:56;3.43;;;2.30;;
26034;SDS011;13809;48.632;11.576;2023-09-18T11:25:30;3.70;;;2.40;;
26034;SDS011;13809;48.632;11.576;2023-09-18T11:30:48;2.77;;;2.00;;
26034;SDS011;13809;48.632;11.576;2023-09-18T11:35:54;3.23;;;2.00;;
26034;SDS011;13809;48.632;11.576;2023-09-18T11:40:58;2.73;;;1.80;;
26034;SDS011;13809;48.632;11.576;2023-09-18T11:46:04;3.17;;;1.70;;
26034;SDS011;13809;48.632;11.576;2023-09-18T11:51:10;4.63;;;2.00;;
26034;SDS011;13809;48.632;11.576;2023-09-18T11:56:15;2.50;;;1.80;;
26034;SDS011;13809;48.632;11.576;2023-09-18T12:01:20;5.40;;;2.20;;
26034;SDS011;13809;48.632;11.576;2023-09-18T12:06:26;3.03;;;1.80;;
26034;SDS011;13809;48.632;11.576;2023-09-18T12:11:29;3.37;;;1.70;;
26034;SDS011;13809;48.632;11.576;2023-09-18T12:16:37;7.47;;;1.80;;
26034;SDS011;13809;48.632;11.576;2023-09-18T12:21:42;5.83;;;1.93;;
26034;SDS011;13809;48.632;11.576;2023-09-18T12:26:50;5.77;;;1.50;;
26034;SDS011;13809;48.632;11.576;2023-09-18T12:31:54;2.97;;;1.53;;
26034;SDS011;13809;48.632;11.576;2023-09-18T12:36:59;5.20;;;1.80;;
26034;SDS011;13809;48.632;11.576;2023-09-18T12:42:04;1.83;;;1.40;;
26034;SDS011;13809;48.632;11.576;2023-09-18T12:47:07;1.73;;;1.40;;
26034;SDS011;13809;48.632;11.576;2023-09-18T12:52:12;3.23;;;1.50;;
26034;SDS011;13809;48.632;11.576;2023-09-18T12:57:16;4.43;;;1.53;;
26034;SDS011;13809;48.632;11.576;2023-09-18T13:02:19;2.00;;;1.47;;
26034;SDS011;13809;48.632;11.576;2023-09-18T13:07:31;3.17;;;1.23;;
26034;SDS011;13809;48.632;11.576;2023-09-18T13:12:46;1.93;;;1.43;;
26034;SDS011;13809;48.632;11.576;2023-09-18T13:17:55;2.47;;;1.50;;
26034;SDS011;13809;48.632;11.576;2023-09-18T13:23:02;3.00;;;1.40;;
26034;SDS011;13809;48.632;11.576;2023-09-18T13:28:07;2.17;;;1.40;;
26034;SDS011;13809;48.632;11.576;2023-09-18T13:33:12;4.53;;;1.50;;
26034;SDS011;13809;48.632;11.576;2023-09-18T13:38:18;3.07;;;1.50;;
26034;SDS011;13809;48.632;11.576;2023-09-18T13:43:24;1.97;;;1.30;;
26034;SDS011;13809;48.632;11.576;2023-09-18T13:48:28;2.73;;;1.40;;
26034;SDS011;13809;48.632;11.576;2023-09-18T13:53:33;1.53;;;1.40;;
26034;SDS011;13809;48.632;11.576;2023-09-18T13:58:37;1.30;;;1.20;;
26034;SDS011;13809;48.632;11.576;2023-09-18T14:03:42;3.00;;;1.07;;
26034;SDS011;13809;48.632;11.576;2023-09-18T14:08:48;1.60;;;1.20;;
26034;SDS011;13809;48.632;11.576;2023-09-18T14:13:55;1.93;;;1.30;;
26034;SDS011;13809;48.632;11.576;2023-09-18T14:18:58;1.83;;;1.20;;
26034;SDS011;13809;48.632;11.576;2023-09-18T14:24:03;2.80;;;1.23;;
26034;SDS011;13809;48.632;11.576;2023-09-18T14:29:07;2.07;;;1.00;;
26034;SDS011;13809;48.632;11.576;2023-09-18T14:34:10;2.97;;;1.17;;
26034;SDS011;13809;48.632;11.576;2023-09-18T14:39:14;2.33;;;1.30;;
26034;SDS011;13809;48.632;11.576;2023-09-18T14:44:18;1.30;;;1.20;;
26034;SDS011;13809;48.632;11.576;2023-09-18T14:49:21;2.27;;;1.20;;
26034;SDS011;13809;48.632;11.576;2023-09-18T14:54:26;2.37;;;1.40;;
26034;SDS011;13809;48.632;11.576;2023-09-18T14:59:29;2.00;;;1.50;;
26034;SDS011;13809;48.632;11.576;2023-09-18T15:04:42;2.37;;;1.43;;
26034;SDS011;13809;48.632;11.576;2023-09-18T15:09:47;2.27;;;1.57;;
26034;SDS011;13809;48.632;11.576;2023-09-18T15:14:50;2.47;;;1.50;;
26034;SDS011;13809;48.632;11.576;2023-09-18T15:19:53;2.07;;;1.80;;
26034;SDS011;13809;48.632;11.576;2023-09-18T15:24:58;3.90;;;2.10;;
26034;SDS011;13809;48.632;11.576;2023-09-18T15:30:03;2.60;;;1.90;;
26034;SDS011;13809;48.632;11.576;2023-09-18T15:35:07;2.97;;;1.70;;
26034;SDS011;13809;48.632;11.576;2023-09-18T15:40:12;1.73;;;1.50;;
26034;SDS011;13809;48.632;11.576;2023-09-18T15:45:17;2.43;;;1.37;;
26034;SDS011;13809;48.632;11.576;2023-09-18T15:50:21;2.27;;;1.40;;
26034;SDS011;13809;48.632;11.576;2023-09-18T15:55:26;1.90;;;1.60;;
26034;SDS011;13809;48.632;11.576;2023-09-18T16:00:29;1.97;;;1.30;;
26034;SDS011;13809;48.632;11.576;2023-09-18T16:05:36;3.43;;;1.63;;
26034;SDS011;13809;48.632;11.576;2023-09-18T16:10:42;2.30;;;1.40;;
26034;SDS011;13809;48.632;11.576;2023-09-18T16:15:45;2.03;;;1.47;;
26034;SDS011;13809;48.632;11.576;2023-09-18T16:20:50;1.80;;;1.70;;
26034;SDS011;13809;48.632;11.576;2023-09-18T16:25:55;1.53;;;1.33;;
26034;SDS011;13809;48.632;11.576;2023-09-18T16:30:58;1.60;;;1.50;;
26034;SDS011;13809;48.632;11.576;2023-09-18T16:36:06;2.50;;;1.80;;
26034;SDS011;13809;48.632;11.576;2023-09-18T16:41:11;2.13;;;1.97;;
26034;SDS011;13809;48.632;11.576;2023-09-18T16:46:14;2.23;;;1.70;;
26034;SDS011;13809;48.632;11.576;2023-09-18T16:51:18;1.93;;;1.47;;
26034;SDS011;13809;48.632;11.576;2023-09-18T16:56:25;1.53;;;1.43;;
26034;SDS011;13809;48.632;11.576;2023-09-18T17:01:29;1.80;;;1.70;;
26034;SDS011;13809;48.632;11.576;2023-09-18T17:06:34;2.23;;;1.70;;
26034;SDS011;13809;48.632;11.576;2023-09-18T17:11:38;1.50;;;1.40;;
26034;SDS011;13809;48.632;11.576;2023-09-18T17:16:43;1.50;;;1.40;;
26034;SDS011;13809;48.632;11.576;2023-09-18T17:21:46;4.67;;;1.47;;
26034;SDS011;13809;48.632;11.576;2023-09-18T17:26:51;1.40;;;1.30;;
26034;SDS011;13809;48.632;11.576;2023-09-18T17:31:54;1.83;;;1.43;;
26034;SDS011;13809;48.632;11.576;2023-09-18T17:36:57;2.00;;;1.77;;
26034;SDS011;13809;48.632;11.576;2023-09-18T17:42:02;1.97;;;1.50;;
26034;SDS011;13809;48.632;11.576;2023-09-18T17:47:05;1.63;;;1.50;;
26034;SDS011;13809;48.632;11.576;2023-09-18T17:52:08;2.37;;;1.40;;
26034;SDS011;13809;48.632;11.576;2023-09-18T17:57:14;1.60;;;1.30;;
26034;SDS011;13809;48.632;11.576;2023-09-18T18:02:17;1.73;;;1.20;;
26034;SDS011;13809;48.632;11.576;2023-09-18T18:07:21;1.20;;;1.10;;
26034;SDS011;13809;48.632;11.576;2023-09-18T18:12:25;1.57;;;1.17;;
26034;SDS011;13809;48.632;11.576;2023-09-18T18:17:29;1.57;;;1.20;;
26034;SDS011;13809;48.632;11.576;2023-09-18T18:22:32;1.70;;;1.20;;
26034;SDS011;13809;48.632;11.576;2023-09-18T18:27:37;2.23;;;1.20;;
26034;SDS011;13809;48.632;11.576;2023-09-18T18:32:40;1.90;;;1.13;;
26034;SDS011;13809;48.632;11.576;2023-09-18T18:37:44;1.40;;;1.00;;
26034;SDS011;13809;48.632;11.576;2023-09-18T18:42:49;1.23;;;1.13;;
26034;SDS011;13809;48.632;11.576;2023-09-18T18:47:53;4.13;;;1.33;;
26034;SDS011;13809;48.632;11.576;2023-09-18T18:52:59;1.37;;;1.20;;
26034;SDS011;13809;48.632;11.576;2023-09-18T18:58:05;1.60;;;1.27;;
26034;SDS011;13809;48.632;11.576;2023-09-18T19:03:09;1.27;;;1.17;;
26034;SDS011;13809;48.632;11.576;2023-09-18T19:08:12;2.10;;;1.20;;
26034;SDS011;13809;48.632;11.576;2023-09-18T19:13:18;1.30;;;1.20;;
26034;SDS011;13809;48.632;11.576;2023-09-18T19:18:22;1.50;;;1.20;;
26034;SDS011;13809;48.632;11.576;2023-09-18T19:23:29;1.23;;;1.00;;
26034;SDS011;13809;48.632;11.576;2023-09-18T19:28:34;1.73;;;1.00;;
26034;SDS011;13809;48.632;11.576;2023-09-18T19:33:37;1.67;;;1.13;;
26034;SDS011;13809;48.632;11.576;2023-09-18T19:38:41;1.30;;;1.20;;
26034;SDS011;13809;48.632;11.576;2023-09-18T19:43:46;2.03;;;1.30;;
26034;SDS011;13809;48.632;11.576;2023-09-18T19:48:50;1.17;;;1.07;;
26034;SDS011;13809;48.632;11.576;2023-09-18T19:53:54;1.33;;;1.23;;
26034;SDS011;13809;48.632;11.576;2023-09-18T19:58:58;2.33;;;1.13;;
26034;SDS011;13809;48.632;11.576;2023-09-18T20:04:01;1.13;;;1.10;;
26034;SDS011;13809;48.632;11.576;2023-09-18T20:09:06;2.70;;;1.40;;
26034;SDS011;13809;48.632;11.576;2023-09-18T20:14:14;1.77;;;1.40;;
26034;SDS011;13809;48.632;11.576;2023-09-18T20:19:32;1.53;;;1.30;;
26034;SDS011;13809;48.632;11.576;2023-09-18T20:24:35;2.07;;;1.20;;
26034;SDS011;13809;48.632;11.576;2023-09-18T20:29:40;2.93;;;1.40;;
26034;SDS011;13809;48.632;11.576;2023-09-18T20:34:43;1.33;;;1.23;;
26034;SDS011;13809;48.632;11.576;2023-09-18T20:39:48;2.00;;;1.37;;
26034;SDS011;13809;48.632;11.576;2023-09-18T20:44:54;2.10;;;1.60;;
26034;SDS011;13809;48.632;11.576;2023-09-18T20:49:58;2.47;;;1.30;;
26034;SDS011;13809;48.632;11.576;2023-09-18T20:55:01;1.50;;;1.40;;
26034;SDS011;13809;48.632;11.576;2023-09-18T21:00:08;3.27;;;1.30;;
26034;SDS011;13809;48.632;11.576;2023-09-18T21:05:13;1.87;;;1.30;;
26034;SDS011;13809;48.632;11.576;2023-09-18T21:10:17;2.00;;;1.37;;
26034;SDS011;13809;48.632;11.576;2023-09-18T21:15:22;1.67;;;1.20;;
26034;SDS011;13809;48.632;11.576;2023-09-18T21:20:26;1.50;;;1.40;;
26034;SDS011;13809;48.632;11.576;2023-09-18T21:25:29;2.40;;;1.50;;
26034;SDS011;13809;48.632;11.576;2023-09-18T21:30:35;1.57;;;1.43;;
26034;SDS011;13809;48.632;11.576;2023-09-18T21:35:40;1.70;;;1.37;;
26034;SDS011;13809;48.632;11.576;2023-09-18T21:40:43;2.23;;;1.27;;
26034;SDS011;13809;48.632;11.576;2023-09-18T21:45:50;1.40;;;1.30;;
26034;SDS011;13809;48.632;11.576;2023-09-18T21:50:53;1.70;;;1.27;;
26034;SDS011;13809;48.632;11.576;2023-09-18T21:55:56;1.43;;;1.30;;
26034;SDS011;13809;48.632;11.576;2023-09-18T22:01:02;1.93;;;1.20;;
26034;SDS011;13809;48.632;11.576;2023-09-18T22:06:06;3.50;;;1.47;;
26034;SDS011;13809;48.632;11.576;2023-09-18T22:11:09;2.07;;;1.40;;
26034;SDS011;13809;48.632;11.576;2023-09-18T22:16:14;1.93;;;1.50;;
26034;SDS011;13809;48.632;11.576;2023-09-18T22:21:17;2.07;;;1.30;;
26034;SDS011;13809;48.632;11.576;2023-09-18T22:26:21;1.40;;;1.30;;
26034;SDS011;13809;48.632;11.576;2023-09-18T22:31:25;1.40;;;1.30;;
26034;SDS011;13809;48.632;11.576;2023-09-18T22:36:29;1.30;;;1.07;;
26034;SDS011;13809;48.632;11.576;2023-09-18T22:57:42;2.10;;;1.50;;
26034;SDS011;13809;48.632;11.576;2023-09-18T23:02:48;1.63;;;1.40;;
26034;SDS011;13809;48.632;11.576;2023-09-18T23:07:53;1.60;;;1.50;;
26034;SDS011;13809;48.632;11.576;2023-09-18T23:12:59;3.33;;;1.40;;
26034;SDS011;13809;48.632;11.576;2023-09-18T23:18:06;1.40;;;1.30;;
26034;SDS011;13809;48.632;11.576;2023-09-18T23:23:09;1.47;;;1.37;;
26034;SDS011;13809;48.632;11.576;2023-09-18T23:28:14;1.40;;;1.30;;
26034;SDS011;13809;48.632;11.576;2023-09-18T23:33:17;1.50;;;1.40;;
26034;SDS011;13809;48.632;11.576;2023-09-18T23:38:21;1.73;;;1.30;;
26034;SDS011;13809;48.632;11.576;2023-09-18T23:43:29;1.27;;;1.17;;
26034;SDS011;13809;48.632;11.576;2023-09-18T23:48:35;1.70;;;1.30;;
26034;SDS011;13809;48.632;11.576;2023-09-18T23:53:39;1.30;;;1.23;;
26034;SDS011;13809;48.632;11.576;2023-09-18T23:58:44;1.73;;;1.30;;
